Mississippi Star — 9HA2441 — position and weather

sailwx.info

Track history (hours):
 
Tides and Currents Weather Stations Pressure Air Temp Water Temp Dewpoint Dewpoint Depression Visibility Wind Speed Wind Dir Waves Ship Positions

Mississippi Star

Last reported at 2015-Aug-04 03:15 UTC. Time now 2015-Aug-04 11:48 UTC.
Position N 59°59' E 019°26'.

Length 128 m; draft 8 m.

Type: Ship. MMSI: 248621000.

Date/timePositionNaut miles runAvg speedWind from/ knotsBaromVisibWave heightAir tempDewpointWater temp
2015-Aug-04 03:15N 59°59' E 019°26'912.0
2015-Aug-04 02:32N 59°53' E 019°37'1211.8
2015-Aug-04 01:33N 59°44' E 019°51'1211.6
2015-Aug-04 00:33N 59°36' E 020°08'2611.5
2015-Aug-03 22:18N 59°10' E 020°11'11511.5
2015-Aug-03 12:17N 57°19' E 019°11'912.5
2015-Aug-03 11:33N 57°12' E 019°01'1312.6
2015-Aug-03 10:33N 57°02' E 018°48'1712.4
2015-Aug-03 09:12N 56°48' E 018°29'812.6
2015-Aug-03 08:33N 56°43' E 018°18'7712.3
2015-Aug-03 02:16N 55°57' E 016°25'912.1
2015-Aug-03 01:33N 55°53' E 016°12'1211.9
2015-Aug-03 00:33N 55°47' E 015°53'1212.1
2015-Aug-02 23:33N 55°41' E 015°35'1212.2
2015-Aug-02 22:33N 55°35' E 015°15'1212.3
2015-Aug-02 21:33N 55°29' E 014°56'1212.4
2015-Aug-02 20:33N 55°23' E 014°38'1212.4
2015-Aug-02 19:33N 55°13' E 014°24'1212.4
2015-Aug-02 18:33N 55°04' E 014°10'1212.2
2015-Aug-02 17:33N 54°58' E 013°51'1212.5
2015-Aug-02 16:33N 54°54' E 013°31'1212.4
2015-Aug-02 15:33N 54°50' E 013°10'1212.3
2015-Aug-02 14:33N 54°47' E 012°50'1212.2
2015-Aug-02 13:33N 54°40' E 012°32'1211.6
2015-Aug-02 12:33N 54°32' E 012°17'1110.7
2015-Aug-02 11:33N 54°24' E 012°05'1212.2
2015-Aug-02 10:33N 54°25' E 011°44'1212.3
2015-Aug-02 09:33N 54°31' E 011°25'1211.7
2015-Aug-02 08:33N 54°36' E 011°07'1111.5
2015-Aug-02 07:33N 54°43' E 010°51'1010.0
2015-Aug-02 06:33N 54°53' E 010°53'1110.4
2015-Aug-02 05:30N 55°03' E 011°02'1010.7
2015-Aug-02 04:33N 55°13' E 011°06'91 2.9
2015-Jul-31 21:22N 56°41' E 011°47'910.8
2015-Jul-31 20:33N 56°49' E 011°49'1111.1
2015-Jul-31 19:33N 56°60' E 011°43'1111.1
2015-Jul-31 18:33N 57°10' E 011°37'1111.3
2015-Jul-31 17:33N 57°21' E 011°29'1111.0
2015-Jul-31 16:33N 57°31' E 011°21'1312.5
2015-Jul-31 15:33N 57°41' E 011°07'1313.5
2015-Jul-31 14:34N 57°52' E 010°52'18610.3
2015-Jul-30 20:33N 55°37' E 006°59'8 8.0
2015-Jul-30 19:34N 55°29' E 007°00'8 8.3
2015-Jul-30 18:34N 55°20' E 007°01'8 7.8
2015-Jul-30 17:33N 55°13' E 007°02'8 7.9
2015-Jul-30 16:34N 55°05' E 007°03'9 8.7
2015-Jul-30 15:33N 54°56' E 007°02'8 8.0
2015-Jul-30 14:33N 54°48' E 007°03'8 8.4
2015-Jul-30 13:33N 54°40' E 007°06'8 8.3
2015-Jul-30 12:33N 54°32' E 007°11'9 9.1
2015-Jul-30 11:33N 54°24' E 007°17'9 8.9
2015-Jul-30 10:33N 54°16' E 007°25'8 8.1
2015-Jul-30 09:33N 54°09' E 007°32'8 7.7
2015-Jul-30 08:33N 54°02' E 007°39'7 6.7
2015-Jul-30 07:32N 53°56' E 007°43'6 6.3
2015-Jul-30 06:33N 53°52' E 007°51'6 6.3
2015-Jul-30 05:34N 53°51' E 008°02'10 9.6
2015-Jul-30 04:34N 53°44' E 008°13'1313.1
2015-Jul-30 03:33N 53°36' E 008°30'3 2.6
2015-Jul-30 02:33N 53°34' E 008°33'1 0.9
2015-Jul-30 01:34N 53°33' E 008°34'0 0.0
2015-Jul-30 00:34N 53°33' E 008°34'0 0.0
2015-Jul-29 23:34N 53°33' E 008°34'0 0.0
2015-Jul-29 22:30N 53°33' E 008°34'0 0.0
2015-Jul-29 21:33N 53°33' E 008°34'0 0.0
2015-Jul-29 20:31N 53°33' E 008°34'0 0.0
2015-Jul-29 19:33N 53°33' E 008°34'0 0.0
2015-Jul-29 18:28N 53°33' E 008°34'0 0.0
2015-Jul-29 17:30N 53°33' E 008°34'0 0.0
2015-Jul-29 16:33N 53°33' E 008°34'0 0.0
2015-Jul-29 15:30N 53°33' E 008°34'0 0.0
2015-Jul-29 14:33N 53°33' E 008°34'0 0.0
2015-Jul-29 13:33N 53°33' E 008°34'0 0.0
2015-Jul-29 12:33N 53°33' E 008°34'0 0.0
2015-Jul-29 11:30N 53°33' E 008°34'0 0.0
2015-Jul-29 10:33N 53°33' E 008°34'0 0.0
2015-Jul-29 09:33N 53°33' E 008°34'0 0.0
2015-Jul-29 08:33N 53°33' E 008°34'0 0.0
2015-Jul-29 07:33N 53°33' E 008°34'0 0.0
2015-Jul-29 06:33N 53°33' E 008°34'0 0.0
2015-Jul-29 05:33N 53°33' E 008°34'0 0.0
2015-Jul-29 04:33N 53°33' E 008°34'0 0.0
2015-Jul-29 03:33N 53°33' E 008°34'0 0.0
2015-Jul-29 02:33N 53°33' E 008°34'0 0.0
2015-Jul-29 01:33N 53°33' E 008°34'0 0.0
2015-Jul-29 00:33N 53°33' E 008°34'0 0.0
2015-Jul-28 23:33N 53°33' E 008°34'0 0.0
2015-Jul-28 22:33N 53°33' E 008°34'0 0.0
2015-Jul-28 21:33N 53°33' E 008°34'0 0.0
2015-Jul-28 20:33N 53°33' E 008°34'0 0.0
2015-Jul-28 19:33N 53°33' E 008°34'0 0.0
2015-Jul-28 18:33N 53°33' E 008°34'0 0.0
2015-Jul-28 17:33N 53°33' E 008°34'0 0.0
2015-Jul-28 16:33N 53°33' E 008°34'0 0.0
2015-Jul-28 15:33N 53°33' E 008°34'0 0.0
2015-Jul-28 14:33N 53°33' E 008°34'0 0.1
2015-Jul-28 13:33N 53°33' E 008°34'  
Track history (hours):
 
Tides and Currents Weather Stations Pressure Air Temp Water Temp Dewpoint Dewpoint Depression Visibility Wind Speed Wind Dir Waves Ship Positions

Mississippi Star

Last reported at 2015-Aug-04 03:15 UTC. Time now 2015-Aug-04 11:48 UTC.
Position N 59°59' E 019°26'.

Length 128 m; draft 8 m.

Type: Ship. MMSI: 248621000.

Date/timePositionNaut miles runAvg speedWind from/ knotsBaromVisibWave heightAir tempDewpointWater temp
2015-Aug-04 03:15N 59°59' E 019°26'912.0
2015-Aug-04 02:32N 59°53' E 019°37'1211.8
2015-Aug-04 01:33N 59°44' E 019°51'1211.6
2015-Aug-04 00:33N 59°36' E 020°08'2611.5
2015-Aug-03 22:18N 59°10' E 020°11'11511.5
2015-Aug-03 12:17N 57°19' E 019°11'912.5
2015-Aug-03 11:33N 57°12' E 019°01'1312.6
2015-Aug-03 10:33N 57°02' E 018°48'1712.4
2015-Aug-03 09:12N 56°48' E 018°29'812.6
2015-Aug-03 08:33N 56°43' E 018°18'7712.3
2015-Aug-03 02:16N 55°57' E 016°25'912.1
2015-Aug-03 01:33N 55°53' E 016°12'1211.9
2015-Aug-03 00:33N 55°47' E 015°53'1212.1
2015-Aug-02 23:33N 55°41' E 015°35'1212.2
2015-Aug-02 22:33N 55°35' E 015°15'1212.3
2015-Aug-02 21:33N 55°29' E 014°56'1212.4
2015-Aug-02 20:33N 55°23' E 014°38'1212.4
2015-Aug-02 19:33N 55°13' E 014°24'1212.4
2015-Aug-02 18:33N 55°04' E 014°10'1212.2
2015-Aug-02 17:33N 54°58' E 013°51'1212.5
2015-Aug-02 16:33N 54°54' E 013°31'1212.4
2015-Aug-02 15:33N 54°50' E 013°10'1212.3
2015-Aug-02 14:33N 54°47' E 012°50'1212.2
2015-Aug-02 13:33N 54°40' E 012°32'1211.6
2015-Aug-02 12:33N 54°32' E 012°17'1110.7
2015-Aug-02 11:33N 54°24' E 012°05'1212.2
2015-Aug-02 10:33N 54°25' E 011°44'1212.3
2015-Aug-02 09:33N 54°31' E 011°25'1211.7
2015-Aug-02 08:33N 54°36' E 011°07'1111.5
2015-Aug-02 07:33N 54°43' E 010°51'1010.0
2015-Aug-02 06:33N 54°53' E 010°53'1110.4
2015-Aug-02 05:30N 55°03' E 011°02'1010.7
2015-Aug-02 04:33N 55°13' E 011°06'91 2.9
2015-Jul-31 21:22N 56°41' E 011°47'910.8
2015-Jul-31 20:33N 56°49' E 011°49'1111.1
2015-Jul-31 19:33N 56°60' E 011°43'1111.1
2015-Jul-31 18:33N 57°10' E 011°37'1111.3
2015-Jul-31 17:33N 57°21' E 011°29'1111.0
2015-Jul-31 16:33N 57°31' E 011°21'1312.5
2015-Jul-31 15:33N 57°41' E 011°07'1313.5
2015-Jul-31 14:34N 57°52' E 010°52'18610.3
2015-Jul-30 20:33N 55°37' E 006°59'8 8.0
2015-Jul-30 19:34N 55°29' E 007°00'8 8.3
2015-Jul-30 18:34N 55°20' E 007°01'8 7.8
2015-Jul-30 17:33N 55°13' E 007°02'8 7.9
2015-Jul-30 16:34N 55°05' E 007°03'9 8.7
2015-Jul-30 15:33N 54°56' E 007°02'8 8.0
2015-Jul-30 14:33N 54°48' E 007°03'8 8.4
2015-Jul-30 13:33N 54°40' E 007°06'8 8.3
2015-Jul-30 12:33N 54°32' E 007°11'9 9.1
2015-Jul-30 11:33N 54°24' E 007°17'9 8.9
2015-Jul-30 10:33N 54°16' E 007°25'8 8.1
2015-Jul-30 09:33N 54°09' E 007°32'8 7.7
2015-Jul-30 08:33N 54°02' E 007°39'7 6.7
2015-Jul-30 07:32N 53°56' E 007°43'6 6.3
2015-Jul-30 06:33N 53°52' E 007°51'6 6.3
2015-Jul-30 05:34N 53°51' E 008°02'10 9.6
2015-Jul-30 04:34N 53°44' E 008°13'1313.1
2015-Jul-30 03:33N 53°36' E 008°30'3 2.6
2015-Jul-30 02:33N 53°34' E 008°33'1 0.9
2015-Jul-30 01:34N 53°33' E 008°34'0 0.0
2015-Jul-30 00:34N 53°33' E 008°34'0 0.0
2015-Jul-29 23:34N 53°33' E 008°34'0 0.0
2015-Jul-29 22:30N 53°33' E 008°34'0 0.0
2015-Jul-29 21:33N 53°33' E 008°34'0 0.0
2015-Jul-29 20:31N 53°33' E 008°34'0 0.0
2015-Jul-29 19:33N 53°33' E 008°34'0 0.0
2015-Jul-29 18:28N 53°33' E 008°34'0 0.0
2015-Jul-29 17:30N 53°33' E 008°34'0 0.0
2015-Jul-29 16:33N 53°33' E 008°34'0 0.0
2015-Jul-29 15:30N 53°33' E 008°34'0 0.0
2015-Jul-29 14:33N 53°33' E 008°34'0 0.0
2015-Jul-29 13:33N 53°33' E 008°34'0 0.0
2015-Jul-29 12:33N 53°33' E 008°34'0 0.0
2015-Jul-29 11:30N 53°33' E 008°34'0 0.0
2015-Jul-29 10:33N 53°33' E 008°34'0 0.0
2015-Jul-29 09:33N 53°33' E 008°34'0 0.0
2015-Jul-29 08:33N 53°33' E 008°34'0 0.0
2015-Jul-29 07:33N 53°33' E 008°34'0 0.0
2015-Jul-29 06:33N 53°33' E 008°34'0 0.0
2015-Jul-29 05:33N 53°33' E 008°34'0 0.0
2015-Jul-29 04:33N 53°33' E 008°34'0 0.0
2015-Jul-29 03:33N 53°33' E 008°34'0 0.0
2015-Jul-29 02:33N 53°33' E 008°34'0 0.0
2015-Jul-29 01:33N 53°33' E 008°34'0 0.0
2015-Jul-29 00:33N 53°33' E 008°34'0 0.0
2015-Jul-28 23:33N 53°33' E 008°34'0 0.0
2015-Jul-28 22:33N 53°33' E 008°34'0 0.0
2015-Jul-28 21:33N 53°33' E 008°34'0 0.0
2015-Jul-28 20:33N 53°33' E 008°34'0 0.0
2015-Jul-28 19:33N 53°33' E 008°34'0 0.0
2015-Jul-28 18:33N 53°33' E 008°34'0 0.0
2015-Jul-28 17:33N 53°33' E 008°34'0 0.0
2015-Jul-28 16:33N 53°33' E 008°34'0 0.0
2015-Jul-28 15:33N 53°33' E 008°34'0 0.0
2015-Jul-28 14:33N 53°33' E 008°34'0 0.1
2015-Jul-28 13:33N 53°33' E 008°34'  

Dump ship's entire track history